createdAt,value
2018-07-21T00:00:32.018Z,2.50
2018-07-21T00:01:31.941Z,2.40
2018-07-21T00:02:31.865Z,2.30
2018-07-21T00:03:31.777Z,2.60
2018-07-21T00:04:31.716Z,2.40
2018-07-21T00:05:31.629Z,2.30
2018-07-21T00:06:31.546Z,2.50
2018-07-21T00:07:31.494Z,2.30
2018-07-21T00:08:31.393Z,2.60
2018-07-21T00:09:31.316Z,2.30
2018-07-21T00:10:31.228Z,2.40
2018-07-21T00:11:31.152Z,2.60
2018-07-21T00:12:31.077Z,2.40
2018-07-21T00:13:30.993Z,2.40
2018-07-21T00:14:30.918Z,2.40
2018-07-21T00:15:30.848Z,2.40
2018-07-21T00:16:30.758Z,2.40
2018-07-21T00:17:30.678Z,2.50
2018-07-21T00:18:30.617Z,2.80
2018-07-21T00:19:30.523Z,2.20
2018-07-21T00:20:30.449Z,2.40
2018-07-21T00:21:30.369Z,2.60
2018-07-21T00:22:30.293Z,2.40
2018-07-21T00:23:30.207Z,2.40
2018-07-21T00:24:30.130Z,2.60
2018-07-21T00:25:30.055Z,2.70
2018-07-21T00:26:29.967Z,2.50
2018-07-21T00:27:29.892Z,2.40
2018-07-21T00:28:29.843Z,2.60
2018-07-21T00:29:29.730Z,2.70
2018-07-21T00:30:29.654Z,2.50
2018-07-21T00:31:29.580Z,2.60
2018-07-21T00:32:29.493Z,2.50
2018-07-21T00:33:29.421Z,2.50
2018-07-21T00:34:29.349Z,2.30
2018-07-21T00:35:29.257Z,2.50
2018-07-21T00:36:29.182Z,2.70
2018-07-21T00:37:29.104Z,2.50
2018-07-21T00:38:29.019Z,2.40
2018-07-21T00:39:28.943Z,2.50
2018-07-21T00:40:28.869Z,2.50
2018-07-21T00:41:28.784Z,2.60
2018-07-21T00:42:28.708Z,2.50
2018-07-21T00:43:28.634Z,2.70
2018-07-21T00:44:28.546Z,2.50
2018-07-21T00:45:28.471Z,2.70
2018-07-21T00:46:28.439Z,2.80
2018-07-21T00:47:28.309Z,2.60
2018-07-21T00:48:28.233Z,2.60
2018-07-21T00:49:28.156Z,2.70
2018-07-21T00:50:28.082Z,2.40
2018-07-21T00:51:27.994Z,2.70
2018-07-21T00:52:27.920Z,2.30
2018-07-21T00:53:27.846Z,2.30
2018-07-21T00:54:27.759Z,2.60
2018-07-21T00:55:27.683Z,2.60
2018-07-21T00:56:27.614Z,2.50
2018-07-21T00:57:27.532Z,2.50
2018-07-21T00:58:27.445Z,2.60
2018-07-21T00:59:27.370Z,2.80
2018-07-21T01:00:27.284Z,2.70
2018-07-21T01:01:27.208Z,2.70
2018-07-21T01:02:27.132Z,2.80
2018-07-21T01:03:27.045Z,2.40
2018-07-21T01:04:26.971Z,2.60
2018-07-21T01:05:26.887Z,2.60
2018-07-21T01:06:26.810Z,2.80
2018-07-21T01:07:26.735Z,2.90
2018-07-21T01:08:26.649Z,2.60
2018-07-21T01:09:26.572Z,2.60
2018-07-21T01:10:26.496Z,2.60
2018-07-21T01:11:26.411Z,2.70
2018-07-21T01:12:26.334Z,2.90
2018-07-21T01:13:26.274Z,2.70
2018-07-21T01:14:26.174Z,2.90
2018-07-21T01:15:26.099Z,2.60
2018-07-21T01:16:26.025Z,2.50
2018-07-21T01:17:25.934Z,2.90
2018-07-21T01:18:25.873Z,2.80
2018-07-21T01:19:25.785Z,2.90
2018-07-21T01:20:25.697Z,3.00
2018-07-21T01:21:25.625Z,3.20
2018-07-21T01:22:25.550Z,2.80
2018-07-21T01:23:25.475Z,3.00
2018-07-21T01:24:25.393Z,2.80
2018-07-21T01:25:25.312Z,3.20
2018-07-21T01:26:25.226Z,3.10
2018-07-21T01:27:25.149Z,2.90
2018-07-21T01:28:25.075Z,3.00
2018-07-21T01:29:24.988Z,3.00
2018-07-21T01:30:24.917Z,2.70
2018-07-21T01:31:24.827Z,3.00
2018-07-21T01:32:24.751Z,3.00
2018-07-21T01:33:24.677Z,3.20
2018-07-21T01:34:24.589Z,3.10
2018-07-21T01:35:24.515Z,2.80
2018-07-21T01:36:24.439Z,3.20
2018-07-21T01:37:24.350Z,3.00
2018-07-21T01:38:24.276Z,2.90
2018-07-21T01:39:24.200Z,3.50
2018-07-21T01:40:24.112Z,3.00
2018-07-21T01:41:24.039Z,3.00
2018-07-21T01:42:23.970Z,2.90
2018-07-21T01:43:23.878Z,3.10
2018-07-21T01:44:23.802Z,3.00
2018-07-21T01:45:23.712Z,3.00
2018-07-21T01:46:23.638Z,2.90
2018-07-21T01:47:23.562Z,3.20
2018-07-21T01:48:23.476Z,3.10
2018-07-21T01:49:23.403Z,3.10
2018-07-21T01:50:23.327Z,3.30
2018-07-21T01:51:23.241Z,3.50
2018-07-21T01:52:23.163Z,2.90
2018-07-21T01:53:23.079Z,2.80
2018-07-21T01:54:23.004Z,3.10
2018-07-21T01:55:22.929Z,3.00
2018-07-21T01:56:22.841Z,2.90
2018-07-21T01:57:22.764Z,2.90
2018-07-21T01:58:22.689Z,3.00
2018-07-21T01:59:22.603Z,3.10
2018-07-21T02:00:22.528Z,3.10
2018-07-21T02:01:22.446Z,3.00
2018-07-21T02:02:22.366Z,3.30
2018-07-21T02:03:22.292Z,3.00
2018-07-21T02:04:22.204Z,3.00
2018-07-21T02:05:22.132Z,3.00
2018-07-21T02:06:22.055Z,3.00
2018-07-21T02:07:21.966Z,3.20
2018-07-21T02:08:21.892Z,3.00
2018-07-21T02:09:21.815Z,3.20
2018-07-21T02:10:21.729Z,3.00
2018-07-21T02:11:21.653Z,2.80
2018-07-21T02:12:21.566Z,3.10
2018-07-21T02:13:21.493Z,2.90
2018-07-21T02:14:21.417Z,3.10
2018-07-21T02:15:21.332Z,2.90
2018-07-21T02:16:21.269Z,3.20
2018-07-21T02:17:21.179Z,2.90
2018-07-21T02:18:21.092Z,3.10
2018-07-21T02:19:21.016Z,3.10
2018-07-21T02:20:20.930Z,2.90
2018-07-21T02:21:20.857Z,3.40
2018-07-21T02:22:20.782Z,3.20
2018-07-21T02:23:20.694Z,3.20
2018-07-21T02:24:20.619Z,3.40
2018-07-21T02:25:20.542Z,3.20
2018-07-21T02:26:20.454Z,3.10
2018-07-21T02:27:20.382Z,3.30
2018-07-21T02:28:20.292Z,3.20
2018-07-21T02:29:20.219Z,3.20
2018-07-21T02:30:20.146Z,3.10
2018-07-21T02:31:20.058Z,3.00
2018-07-21T02:32:19.984Z,3.20
2018-07-21T02:33:19.896Z,3.20
2018-07-21T02:34:19.834Z,3.10
2018-07-21T02:35:19.744Z,3.40
2018-07-21T02:36:19.661Z,3.50
2018-07-21T02:37:19.581Z,3.50
2018-07-21T02:38:19.505Z,3.10
2018-07-21T02:39:19.448Z,3.00
2018-07-21T02:40:19.344Z,3.60
2018-07-21T02:41:19.258Z,3.10
2018-07-21T02:42:19.189Z,2.90
2018-07-21T02:43:19.098Z,3.30
2018-07-21T02:44:19.021Z,3.40
2018-07-21T02:45:18.944Z,3.40
2018-07-21T02:46:18.859Z,3.20
2018-07-21T02:47:18.782Z,3.60
2018-07-21T02:48:18.707Z,3.50
2018-07-21T02:49:18.622Z,3.20
2018-07-21T02:50:18.559Z,3.20
2018-07-21T02:51:18.459Z,3.00
2018-07-21T02:52:18.384Z,2.90
2018-07-21T02:53:18.309Z,3.30
2018-07-21T02:54:18.222Z,3.30
2018-07-21T02:55:18.148Z,3.70
2018-07-21T02:56:18.060Z,3.50
2018-07-21T02:57:17.983Z,3.40
2018-07-21T02:58:17.909Z,3.20
2018-07-21T02:59:17.821Z,3.10
2018-07-21T03:00:17.749Z,3.10
2018-07-21T03:01:17.664Z,3.30
2018-07-21T03:02:17.586Z,3.10
2018-07-21T03:03:17.511Z,3.30
2018-07-21T03:04:17.425Z,3.20
2018-07-21T03:05:17.347Z,3.40
2018-07-21T03:06:17.274Z,3.40
2018-07-21T03:07:17.187Z,3.80
2018-07-21T03:08:17.110Z,3.60
2018-07-21T03:09:17.021Z,2.90
2018-07-21T03:10:16.947Z,3.40
2018-07-21T03:11:16.860Z,3.40
2018-07-21T03:12:16.785Z,3.30
2018-07-21T03:13:16.711Z,3.20
2018-07-21T03:14:16.624Z,3.80
2018-07-21T03:15:16.550Z,3.50
2018-07-21T03:16:16.474Z,3.30
2018-07-21T03:17:16.386Z,3.40
2018-07-21T03:18:16.311Z,3.30
2018-07-21T03:19:16.222Z,3.40
2018-07-21T03:20:16.171Z,3.30
2018-07-21T03:21:16.075Z,3.30
2018-07-21T03:22:15.995Z,3.40
2018-07-21T03:23:15.931Z,3.70
2018-07-21T03:24:15.825Z,3.20
2018-07-21T03:25:15.762Z,3.70
2018-07-21T03:26:15.675Z,3.20
2018-07-21T03:27:15.588Z,3.60
2018-07-21T03:28:15.513Z,3.40
2018-07-21T03:29:15.423Z,3.40
2018-07-21T03:30:15.362Z,3.70
2018-07-21T03:31:15.262Z,3.30
2018-07-21T03:32:15.187Z,3.40
2018-07-21T03:33:15.114Z,3.60
2018-07-21T03:34:15.027Z,3.50
2018-07-21T03:35:14.963Z,3.30
2018-07-21T03:36:14.864Z,3.50
2018-07-21T03:37:14.793Z,3.50
2018-07-21T03:38:14.712Z,3.60
2018-07-21T03:39:14.625Z,3.60
2018-07-21T03:40:14.562Z,3.50
2018-07-21T03:41:14.462Z,3.40
2018-07-21T03:42:14.388Z,3.30
2018-07-21T03:43:14.312Z,3.50
2018-07-21T03:44:14.224Z,3.60
2018-07-21T03:45:14.164Z,3.30
2018-07-21T03:46:14.077Z,3.60
2018-07-21T03:47:13.990Z,3.40
2018-07-21T03:48:13.915Z,3.60
2018-07-21T03:49:13.828Z,3.50
2018-07-21T03:50:13.750Z,3.40
2018-07-21T03:51:13.663Z,3.20
2018-07-21T03:52:13.592Z,3.50
2018-07-21T03:53:13.516Z,3.60
2018-07-21T03:54:13.428Z,3.30
2018-07-21T03:55:13.401Z,3.70
2018-07-21T03:56:13.266Z,3.40
2018-07-21T03:57:13.191Z,3.60
2018-07-21T03:58:13.118Z,3.70
2018-07-21T03:59:13.028Z,3.60
2018-07-21T04:00:12.953Z,3.40
2018-07-21T04:01:12.865Z,3.40
2018-07-21T04:02:12.790Z,3.30
2018-07-21T04:03:12.703Z,3.30
2018-07-21T04:04:12.627Z,3.80
2018-07-21T04:05:12.554Z,3.80
2018-07-21T04:06:12.467Z,3.20
2018-07-21T04:07:12.393Z,3.40
2018-07-21T04:08:12.306Z,3.50
2018-07-21T04:09:12.227Z,3.40
2018-07-21T04:10:12.153Z,3.30
2018-07-21T04:11:12.066Z,3.60
2018-07-21T04:12:11.992Z,3.30
2018-07-21T04:13:11.905Z,3.40
2018-07-21T04:14:11.828Z,3.60
2018-07-21T04:15:11.753Z,3.70
2018-07-21T04:16:11.667Z,3.80
2018-07-21T04:17:11.595Z,3.50
2018-07-21T04:18:11.508Z,3.60
2018-07-21T04:19:11.432Z,3.50
2018-07-21T04:20:11.360Z,3.30
2018-07-21T04:21:11.268Z,3.50
2018-07-21T04:22:11.195Z,3.70
2018-07-21T04:23:11.106Z,3.60
2018-07-21T04:24:11.069Z,3.50
2018-07-21T04:25:10.958Z,3.60
2018-07-21T04:26:10.871Z,3.50
2018-07-21T04:27:10.795Z,3.20
2018-07-21T04:28:10.724Z,3.90
2018-07-21T04:29:10.631Z,3.50
2018-07-21T04:30:10.555Z,3.30
2018-07-21T04:31:10.476Z,3.50
2018-07-21T04:32:10.393Z,3.30
2018-07-21T04:33:10.320Z,3.70
2018-07-21T04:34:10.245Z,2.90
2018-07-21T04:35:10.159Z,3.30
2018-07-21T04:36:10.073Z,3.50
2018-07-21T04:37:09.995Z,3.60
2018-07-21T04:38:09.921Z,3.40
2018-07-21T04:39:09.843Z,3.50
2018-07-21T04:40:09.757Z,3.00
2018-07-21T04:41:09.684Z,3.70
2018-07-21T04:42:09.596Z,3.60
2018-07-21T04:43:09.527Z,3.20
2018-07-21T04:44:09.447Z,3.40
2018-07-21T04:45:09.359Z,3.10
2018-07-21T04:46:09.283Z,3.40
2018-07-21T04:47:09.197Z,3.10
2018-07-21T04:48:09.122Z,3.10
2018-07-21T04:49:09.045Z,3.50
2018-07-21T04:50:08.956Z,3.00
2018-07-21T04:51:08.882Z,3.20
2018-07-21T04:52:08.809Z,2.90
2018-07-21T04:53:08.725Z,3.10
2018-07-21T04:54:08.649Z,2.80
2018-07-21T04:55:08.560Z,3.10
2018-07-21T04:56:08.485Z,2.90
2018-07-21T04:57:08.408Z,3.00
2018-07-21T04:58:08.349Z,3.00
2018-07-21T04:59:08.245Z,2.90
2018-07-21T05:00:08.171Z,2.90
2018-07-21T05:01:08.138Z,2.70
2018-07-21T05:02:08.008Z,2.80
2018-07-21T05:03:07.933Z,2.70
2018-07-21T05:04:07.858Z,2.50
2018-07-21T05:05:07.773Z,2.70
2018-07-21T05:06:07.699Z,2.80
2018-07-21T05:07:07.624Z,2.70
2018-07-21T05:08:07.537Z,2.90
2018-07-21T05:09:07.459Z,2.70
2018-07-21T05:10:07.384Z,3.10
2018-07-21T05:11:07.358Z,2.80
2018-07-21T05:12:07.222Z,3.00
2018-07-21T05:13:07.150Z,3.00
2018-07-21T05:14:07.074Z,2.80
2018-07-21T05:15:06.988Z,2.80
2018-07-21T05:16:06.911Z,3.00
2018-07-21T05:17:06.836Z,2.60
2018-07-21T05:18:06.764Z,2.80
2018-07-21T05:19:06.679Z,2.80
2018-07-21T05:20:06.615Z,2.60
2018-07-21T05:21:06.523Z,2.80
2018-07-21T05:22:06.448Z,3.00
2018-07-21T05:23:06.361Z,2.60
2018-07-21T05:24:06.286Z,2.60
2018-07-21T05:25:06.212Z,2.90
2018-07-21T05:26:06.137Z,2.60
2018-07-21T05:27:06.062Z,2.60
2018-07-21T05:28:05.975Z,2.70
2018-07-21T05:29:05.903Z,2.30
2018-07-21T05:30:05.826Z,2.20
2018-07-21T05:31:05.737Z,2.60
2018-07-21T05:32:05.663Z,2.50
2018-07-21T05:33:05.588Z,2.60
2018-07-21T05:34:05.512Z,2.40
2018-07-21T05:35:05.426Z,2.50
2018-07-21T05:36:05.350Z,2.70
2018-07-21T05:37:05.277Z,2.50
2018-07-21T05:38:05.202Z,2.50
2018-07-21T05:39:05.164Z,2.10
2018-07-21T05:40:05.040Z,2.50
2018-07-21T05:41:04.962Z,2.30
2018-07-21T05:42:04.900Z,2.30
2018-07-21T05:43:04.801Z,2.40
2018-07-21T05:44:04.725Z,2.20
2018-07-21T05:45:04.687Z,2.10
2018-07-21T05:46:04.580Z,2.30
2018-07-21T05:47:04.503Z,2.30
2018-07-21T05:48:04.415Z,2.20
2018-07-21T05:49:04.341Z,2.20
2018-07-21T05:50:04.266Z,2.20
2018-07-21T05:51:04.191Z,2.00
2018-07-21T05:52:04.104Z,2.10
2018-07-21T05:53:04.071Z,2.00
2018-07-21T05:54:03.953Z,1.90
2018-07-21T05:55:03.878Z,2.10
2018-07-21T05:56:03.790Z,2.00
2018-07-21T05:57:03.717Z,1.90
2018-07-21T05:58:03.654Z,1.90
2018-07-21T05:59:03.568Z,1.90
2018-07-21T06:00:03.493Z,1.90
2018-07-21T06:01:03.405Z,1.70
2018-07-21T06:02:03.329Z,1.90
2018-07-21T06:03:03.324Z,1.90
2018-07-21T06:04:03.179Z,1.80
2018-07-21T06:05:03.104Z,1.90
2018-07-21T06:06:03.016Z,1.90
2018-07-21T06:07:02.940Z,1.70
2018-07-21T06:08:02.873Z,2.20
2018-07-21T06:09:02.793Z,1.90
2018-07-21T06:10:02.721Z,1.90
2018-07-21T06:11:02.667Z,1.80
2018-07-21T06:12:02.557Z,1.90
2018-07-21T06:13:02.479Z,2.40
2018-07-21T06:14:02.407Z,2.50
2018-07-21T06:15:02.330Z,2.30
2018-07-21T06:16:02.242Z,2.30
2018-07-21T06:17:02.213Z,2.10
2018-07-21T06:18:02.094Z,2.00
2018-07-21T06:19:02.020Z,1.90
2018-07-21T06:20:01.944Z,2.10
2018-07-21T06:21:01.869Z,2.20
2018-07-21T06:22:01.783Z,1.90
2018-07-21T06:23:01.710Z,1.90
2018-07-21T06:24:01.633Z,1.70
2018-07-21T06:25:01.558Z,2.20
2018-07-21T06:26:01.481Z,2.00
2018-07-21T06:27:01.405Z,2.00
2018-07-21T06:28:01.325Z,1.70
2018-07-21T06:29:01.245Z,2.10
2018-07-21T06:30:01.171Z,2.00
2018-07-21T06:31:01.096Z,2.00
2018-07-21T06:32:01.023Z,1.80
2018-07-21T06:33:00.945Z,2.00
2018-07-21T06:34:00.857Z,1.80
2018-07-21T06:35:00.781Z,2.10
2018-07-21T06:36:00.707Z,1.80
2018-07-21T06:37:00.633Z,1.90
2018-07-21T06:38:00.559Z,1.90
2018-07-21T06:39:00.484Z,2.00
2018-07-21T06:40:00.414Z,1.80
2018-07-21T06:41:00.320Z,1.90
2018-07-21T06:42:00.257Z,2.00
2018-07-21T06:43:00.169Z,1.90
2018-07-21T06:44:00.157Z,1.90
2018-07-21T06:45:00.027Z,2.00
2018-07-21T06:45:59.948Z,1.90
2018-07-21T06:46:59.872Z,1.80
2018-07-21T06:47:59.785Z,2.00
2018-07-21T06:48:59.710Z,2.10
2018-07-21T06:49:59.633Z,2.10
2018-07-21T06:50:59.559Z,2.10
2018-07-21T06:51:59.483Z,2.10
2018-07-21T06:52:59.409Z,2.10
2018-07-21T06:53:59.333Z,1.90
2018-07-21T06:54:59.247Z,2.20
2018-07-21T06:55:59.184Z,2.00
2018-07-21T06:56:59.097Z,2.40
2018-07-21T06:57:59.036Z,2.40
2018-07-21T06:58:58.991Z,2.40
2018-07-21T06:59:58.873Z,2.20
2018-07-21T07:00:58.796Z,2.10
2018-07-21T07:01:58.721Z,2.20
2018-07-21T07:02:58.646Z,2.00
2018-07-21T07:03:58.571Z,2.10
2018-07-21T07:04:58.499Z,2.20
2018-07-21T07:05:58.412Z,2.00
2018-07-21T07:06:58.337Z,2.10
2018-07-21T07:07:58.262Z,2.20
2018-07-21T07:08:58.188Z,2.10
2018-07-21T07:09:58.113Z,2.20
2018-07-21T07:10:58.037Z,2.10
2018-07-21T07:11:57.963Z,2.20
2018-07-21T07:12:57.886Z,2.40
2018-07-21T07:13:57.810Z,2.00
2018-07-21T07:14:57.735Z,2.30
2018-07-21T07:15:57.663Z,2.30
2018-07-21T07:16:57.589Z,2.10
2018-07-21T07:17:57.514Z,2.10
2018-07-21T07:18:57.425Z,2.20
2018-07-21T07:19:57.350Z,2.40
2018-07-21T07:20:57.273Z,2.30
2018-07-21T07:21:57.198Z,2.20
2018-07-21T07:22:57.123Z,2.60
2018-07-21T07:23:57.048Z,2.30
2018-07-21T07:24:56.976Z,1.80
2018-07-21T07:25:56.898Z,2.00
2018-07-21T07:26:56.824Z,2.30
2018-07-21T07:27:56.750Z,2.40
2018-07-21T07:28:56.676Z,2.30
2018-07-21T07:29:56.602Z,2.30
2018-07-21T07:30:56.529Z,2.10
2018-07-21T07:31:56.451Z,2.30
2018-07-21T07:32:56.374Z,2.40
2018-07-21T07:33:56.300Z,2.30
2018-07-21T07:34:56.227Z,2.10
2018-07-21T07:35:56.150Z,2.30
2018-07-21T07:36:56.077Z,2.10
2018-07-21T07:37:56.003Z,2.40
2018-07-21T07:38:55.929Z,2.30
2018-07-21T07:39:55.866Z,2.10
2018-07-21T07:40:55.791Z,2.50
2018-07-21T07:41:55.716Z,2.10
2018-07-21T07:42:55.642Z,2.10
2018-07-21T07:43:55.571Z,2.40
2018-07-21T07:44:55.489Z,2.10
2018-07-21T07:45:55.439Z,2.30
2018-07-21T07:46:55.352Z,2.00
2018-07-21T07:47:55.276Z,2.10
2018-07-21T07:48:55.203Z,2.20
2018-07-21T07:49:55.142Z,2.30
2018-07-21T07:50:55.072Z,2.00
2018-07-21T07:51:54.995Z,2.00
2018-07-21T07:52:54.940Z,2.10
2018-07-21T07:53:54.852Z,2.20
2018-07-21T07:54:54.778Z,2.00
2018-07-21T07:55:54.717Z,2.00
2018-07-21T07:56:54.640Z,2.20
2018-07-21T07:57:54.566Z,2.00
2018-07-21T07:58:54.502Z,1.90
2018-07-21T07:59:54.428Z,2.20
2018-07-21T08:00:54.368Z,2.10
2018-07-21T08:01:54.293Z,2.30
2018-07-21T08:02:54.230Z,2.20
2018-07-21T08:03:54.168Z,2.10
2018-07-21T08:04:54.079Z,2.20
2018-07-21T08:05:54.016Z,2.10
2018-07-21T08:06:53.941Z,1.90
2018-07-21T08:07:53.879Z,2.10
2018-07-21T08:08:53.808Z,2.10
2018-07-21T08:09:53.744Z,2.00
2018-07-21T08:10:53.681Z,2.30
2018-07-21T08:11:53.634Z,1.70
2018-07-21T08:12:53.544Z,2.00
2018-07-21T08:13:53.470Z,2.00
2018-07-21T08:14:53.407Z,2.10
2018-07-21T08:15:53.331Z,2.00
2018-07-21T08:16:53.267Z,2.20
2018-07-21T08:17:53.207Z,2.00
2018-07-21T08:18:53.130Z,1.90
2018-07-21T08:19:53.069Z,2.00
2018-07-21T08:20:52.997Z,2.00
2018-07-21T08:21:52.932Z,2.00
2018-07-21T08:22:52.871Z,2.40
2018-07-21T08:23:52.795Z,2.20
2018-07-21T08:24:52.730Z,2.00
2018-07-21T08:25:52.669Z,2.10
2018-07-21T08:26:52.594Z,2.20
2018-07-21T08:27:52.530Z,2.10
2018-07-21T08:28:52.468Z,2.30
2018-07-21T08:29:52.394Z,2.20
2018-07-21T08:30:52.332Z,2.10
2018-07-21T08:31:52.256Z,2.30
2018-07-21T08:32:52.196Z,2.00
2018-07-21T08:33:52.133Z,2.00
2018-07-21T08:34:52.059Z,1.90
2018-07-21T08:35:51.997Z,2.00
2018-07-21T08:36:51.932Z,2.20
2018-07-21T08:37:51.860Z,2.20
2018-07-21T08:38:51.797Z,2.00
2018-07-21T08:39:51.731Z,2.20
2018-07-21T08:40:51.659Z,2.10
2018-07-21T08:41:51.599Z,2.20
2018-07-21T08:42:51.537Z,2.10
2018-07-21T08:43:51.460Z,2.20
2018-07-21T08:44:51.396Z,2.10
2018-07-21T08:45:51.332Z,2.10
2018-07-21T08:46:51.270Z,2.60
2018-07-21T08:47:51.196Z,2.30
2018-07-21T08:48:51.135Z,2.40
2018-07-21T08:49:51.126Z,2.30
2018-07-21T08:50:51.001Z,2.30
2018-07-21T08:51:50.935Z,2.30
2018-07-21T08:52:50.871Z,2.30
2018-07-21T08:53:50.809Z,2.30
2018-07-21T08:54:50.734Z,2.40
2018-07-21T08:55:50.703Z,2.40
2018-07-21T08:56:50.610Z,2.30
2018-07-21T08:57:50.549Z,2.30
2018-07-21T08:58:50.474Z,2.20
2018-07-21T08:59:50.429Z,2.20
2018-07-21T09:00:50.352Z,2.50
2018-07-21T09:01:50.288Z,2.30
2018-07-21T09:02:50.212Z,2.30
2018-07-21T09:03:50.151Z,2.10
2018-07-21T09:04:50.086Z,2.50
2018-07-21T09:05:50.072Z,2.10
2018-07-21T09:06:49.960Z,2.40
2018-07-21T09:07:49.886Z,2.40
2018-07-21T09:08:49.825Z,2.50
2018-07-21T09:09:49.762Z,2.60
2018-07-21T09:10:49.703Z,2.20
2018-07-21T09:11:49.638Z,2.30
2018-07-21T09:12:49.574Z,2.20
2018-07-21T09:13:49.499Z,2.40
2018-07-21T09:14:49.440Z,2.40
2018-07-21T09:15:49.375Z,2.30
2018-07-21T09:16:49.324Z,2.50
2018-07-21T09:17:49.253Z,2.60
2018-07-21T09:18:49.175Z,2.60
2018-07-21T09:19:49.128Z,2.50
2018-07-21T09:20:49.056Z,2.30
2018-07-21T09:21:48.989Z,2.50
2018-07-21T09:22:48.926Z,2.50
2018-07-21T09:23:48.864Z,2.40
2018-07-21T09:24:48.788Z,2.60
2018-07-21T09:25:48.727Z,2.50
2018-07-21T09:26:48.663Z,2.40
2018-07-21T09:27:48.601Z,2.60
2018-07-21T09:28:48.547Z,2.50
2018-07-21T09:29:48.478Z,2.50
2018-07-21T09:30:48.427Z,2.50
2018-07-21T09:31:48.340Z,2.30
2018-07-21T09:32:48.278Z,2.60
2018-07-21T09:33:48.228Z,2.60
2018-07-21T09:34:48.155Z,2.50
2018-07-21T09:35:48.090Z,2.70
2018-07-21T09:36:48.026Z,2.60
2018-07-21T09:37:47.963Z,2.40
2018-07-21T09:38:47.901Z,2.50
2018-07-21T09:39:47.838Z,2.30
2018-07-21T09:40:47.766Z,2.50
2018-07-21T09:41:47.705Z,2.70
2018-07-21T09:42:47.644Z,2.60
2018-07-21T09:43:47.579Z,2.90
2018-07-21T09:44:47.527Z,2.50
2018-07-21T09:45:47.458Z,2.70
2018-07-21T09:46:47.389Z,2.90
2018-07-21T09:47:47.327Z,2.60
2018-07-21T09:48:47.267Z,2.60
2018-07-21T09:49:47.191Z,2.60
2018-07-21T09:50:47.129Z,2.70
2018-07-21T09:51:47.068Z,2.60
2018-07-21T09:52:47.003Z,2.60
2018-07-21T09:53:46.943Z,2.90
2018-07-21T09:54:46.865Z,2.70
2018-07-21T09:55:46.887Z,2.80
2018-07-21T09:56:46.742Z,2.80
2018-07-21T09:57:46.680Z,2.80
2018-07-21T09:58:46.607Z,2.60
2018-07-21T09:59:46.542Z,2.70
2018-07-21T10:00:46.481Z,3.00
2018-07-21T10:01:46.416Z,3.00
2018-07-21T10:02:46.341Z,3.10
2018-07-21T10:03:46.279Z,3.00
2018-07-21T10:04:46.216Z,3.10
2018-07-21T10:05:46.141Z,2.70
2018-07-21T10:06:46.079Z,3.20
2018-07-21T10:07:46.016Z,3.00
2018-07-21T10:08:45.943Z,3.00
2018-07-21T10:09:45.881Z,3.10
2018-07-21T10:10:45.819Z,2.80
2018-07-21T10:11:45.746Z,3.40
2018-07-21T10:12:45.684Z,3.00
2018-07-21T10:13:45.617Z,2.90
2018-07-21T10:14:45.542Z,3.10
2018-07-21T10:15:45.481Z,2.70
2018-07-21T10:16:45.419Z,2.70
2018-07-21T10:17:45.348Z,2.80
2018-07-21T10:18:45.287Z,2.90
2018-07-21T10:19:45.220Z,2.90
2018-07-21T10:20:45.144Z,2.70
2018-07-21T10:21:45.135Z,3.20
2018-07-21T10:22:45.011Z,3.00
2018-07-21T10:23:44.945Z,2.90
2018-07-21T10:24:44.884Z,2.70
2018-07-21T10:25:44.812Z,3.20
2018-07-21T10:26:44.743Z,3.00
2018-07-21T10:27:44.682Z,2.90
2018-07-21T10:28:44.610Z,3.00
2018-07-21T10:29:44.546Z,2.90
2018-07-21T10:30:44.485Z,2.90
2018-07-21T10:31:44.409Z,2.90
2018-07-21T10:32:44.345Z,3.10
2018-07-21T10:33:44.269Z,3.30
2018-07-21T10:34:44.207Z,3.00
2018-07-21T10:35:44.133Z,3.20
2018-07-21T10:36:44.073Z,3.00
2018-07-21T10:37:44.011Z,3.10
2018-07-21T10:38:43.933Z,3.00
2018-07-21T10:39:43.870Z,3.40
2018-07-21T10:40:43.802Z,3.20
2018-07-21T10:41:43.735Z,3.20
2018-07-21T10:42:43.660Z,3.00
2018-07-21T10:43:43.597Z,3.20
2018-07-21T10:44:43.534Z,3.20
2018-07-21T10:45:43.458Z,3.40
2018-07-21T10:46:43.395Z,3.20
2018-07-21T10:47:43.320Z,3.10
2018-07-21T10:48:43.261Z,3.00
2018-07-21T10:49:43.187Z,3.10
2018-07-21T10:50:43.182Z,3.30
2018-07-21T10:51:43.060Z,2.90
2018-07-21T10:52:42.987Z,3.30
2018-07-21T10:53:42.921Z,3.40
2018-07-21T10:54:42.848Z,2.90
2018-07-21T10:55:42.786Z,3.00
2018-07-21T10:56:42.724Z,2.90
2018-07-21T10:57:42.653Z,3.30
2018-07-21T10:58:42.588Z,3.30
2018-07-21T10:59:42.523Z,3.20
2018-07-21T11:00:42.448Z,3.50
2018-07-21T11:01:42.385Z,3.20
2018-07-21T11:02:42.322Z,3.40
2018-07-21T11:03:42.248Z,3.00
2018-07-21T11:04:42.189Z,3.30
2018-07-21T11:05:42.125Z,3.30
2018-07-21T11:06:42.051Z,3.30
2018-07-21T11:07:41.988Z,3.20
2018-07-21T11:08:41.925Z,3.50
2018-07-21T11:09:41.863Z,3.40
2018-07-21T11:10:41.789Z,3.50
2018-07-21T11:11:41.727Z,3.20
2018-07-21T11:12:41.661Z,3.50
2018-07-21T11:13:41.587Z,3.30
2018-07-21T11:14:41.523Z,3.30
2018-07-21T11:15:41.462Z,3.10
2018-07-21T11:16:41.401Z,3.20
2018-07-21T11:17:41.328Z,3.40
2018-07-21T11:18:41.265Z,3.50
2018-07-21T11:19:41.204Z,3.60
2018-07-21T11:20:41.124Z,3.50
2018-07-21T11:21:41.064Z,3.70
2018-07-21T11:22:40.999Z,3.50
2018-07-21T11:23:40.928Z,3.10
2018-07-21T11:24:40.863Z,3.20
2018-07-21T11:25:40.800Z,3.40
2018-07-21T11:26:40.725Z,3.30
2018-07-21T11:27:40.664Z,3.20
2018-07-21T11:28:40.615Z,3.40
2018-07-21T11:29:40.527Z,3.20
2018-07-21T11:30:40.466Z,3.30
2018-07-21T11:31:40.416Z,3.20
2018-07-21T11:32:40.325Z,3.40
2018-07-21T11:33:40.266Z,3.50
2018-07-21T11:34:40.204Z,3.60
2018-07-21T11:35:40.321Z,3.60
2018-07-21T11:36:40.068Z,3.60
2018-07-21T11:37:39.991Z,3.30
2018-07-21T11:38:39.931Z,3.20
2018-07-21T11:39:39.866Z,3.50
2018-07-21T11:40:39.791Z,3.40
2018-07-21T11:41:39.729Z,3.40
2018-07-21T11:42:39.655Z,3.70
2018-07-21T11:43:39.592Z,3.40
2018-07-21T11:44:39.577Z,3.60
2018-07-21T11:45:39.465Z,3.10
2018-07-21T11:46:39.391Z,3.40
2018-07-21T11:47:39.327Z,3.50
2018-07-21T11:48:39.267Z,3.40
2018-07-21T11:49:39.194Z,3.50
2018-07-21T11:50:39.130Z,3.50
2018-07-21T11:51:39.069Z,3.40
2018-07-21T11:52:39.019Z,3.30
2018-07-21T11:53:38.940Z,3.60
2018-07-21T11:54:38.867Z,3.50
2018-07-21T11:55:38.803Z,3.40
2018-07-21T11:56:38.742Z,3.30
2018-07-21T11:57:38.677Z,3.80
2018-07-21T11:58:38.616Z,3.50
2018-07-21T11:59:38.554Z,3.40
2018-07-21T12:00:38.481Z,3.60
2018-07-21T12:01:38.419Z,4.00
2018-07-21T12:02:38.358Z,3.50
2018-07-21T12:03:38.294Z,3.60
2018-07-21T12:04:38.233Z,3.60
2018-07-21T12:05:38.219Z,3.60
2018-07-21T12:06:38.111Z,3.60
2018-07-21T12:07:38.030Z,3.50
2018-07-21T12:08:37.969Z,3.60
2018-07-21T12:09:37.906Z,3.30
2018-07-21T12:10:37.845Z,4.20
2018-07-21T12:11:37.781Z,3.60
2018-07-21T12:12:37.720Z,3.70
2018-07-21T12:13:37.715Z,3.70
2018-07-21T12:14:37.583Z,3.80
2018-07-21T12:15:37.523Z,3.50
2018-07-21T12:16:37.457Z,3.70
2018-07-21T12:17:37.395Z,3.60
2018-07-21T12:18:37.330Z,3.90
2018-07-21T12:19:37.269Z,3.60
2018-07-21T12:20:37.196Z,3.80
2018-07-21T12:21:37.132Z,3.80
2018-07-21T12:22:37.070Z,3.50
2018-07-21T12:23:37.007Z,3.90
2018-07-21T12:24:36.943Z,4.00
2018-07-21T12:25:36.883Z,3.60
2018-07-21T12:26:36.857Z,3.90
2018-07-21T12:27:36.752Z,3.90
2018-07-21T12:28:36.681Z,4.20
2018-07-21T12:29:36.619Z,4.00
2018-07-21T12:30:36.548Z,3.80
2018-07-21T12:31:36.481Z,3.70
2018-07-21T12:32:36.424Z,3.70
2018-07-21T12:33:36.411Z,3.70
2018-07-21T12:34:36.297Z,3.90
2018-07-21T12:35:36.222Z,3.70
2018-07-21T12:36:36.158Z,3.30
2018-07-21T12:37:36.097Z,3.60
2018-07-21T12:38:36.032Z,3.30
2018-07-21T12:39:35.970Z,3.80
2018-07-21T12:40:35.910Z,3.30
2018-07-21T12:41:35.850Z,3.80
2018-07-21T12:42:35.773Z,3.40
2018-07-21T12:43:35.710Z,3.40
2018-07-21T12:44:35.648Z,3.50
2018-07-21T12:45:35.586Z,4.00
2018-07-21T12:46:35.525Z,4.00
2018-07-21T12:47:35.463Z,3.60
2018-07-21T12:48:35.402Z,3.70
2018-07-21T12:49:35.347Z,3.70
2018-07-21T12:50:35.259Z,3.60
2018-07-21T12:51:35.197Z,3.60
2018-07-21T12:52:35.136Z,3.80
2018-07-21T12:53:35.075Z,3.70
2018-07-21T12:54:35.011Z,3.70
2018-07-21T12:55:34.950Z,3.50
2018-07-21T12:56:34.884Z,4.10
2018-07-21T12:57:34.822Z,4.00
2018-07-21T12:58:34.760Z,3.70
2018-07-21T12:59:34.698Z,3.80
2018-07-21T13:00:34.638Z,3.70
2018-07-21T13:01:34.576Z,3.70
2018-07-21T13:02:34.512Z,3.80
2018-07-21T13:03:34.450Z,3.90
2018-07-21T13:04:34.398Z,3.70
2018-07-21T13:05:34.311Z,3.80
2018-07-21T13:06:34.249Z,3.70
2018-07-21T13:07:34.186Z,3.90
2018-07-21T13:08:34.127Z,3.70
2018-07-21T13:09:34.063Z,3.80
2018-07-21T13:10:34.001Z,3.80
2018-07-21T13:11:33.938Z,3.70
2018-07-21T13:12:33.875Z,4.00
2018-07-21T13:13:33.812Z,3.90
2018-07-21T13:14:33.749Z,3.80
2018-07-21T13:15:33.686Z,3.80
2018-07-21T13:16:33.625Z,3.90
2018-07-21T13:17:33.568Z,3.80